Time;durP1;ratioP1;P1;durP2;ratioP2;P2;SDS_P1;SDS_P2;PMS_P1;PMS_P2;Temp;Humidity;BMP_temperature;BMP_pressure;BME280_temperature;BME280_humidity;BME280_pressure;Samples;Min_cycle;Max_cycle;Signal;HPM_P1;HPM_P2
2022/12/22 03:28:07;;;;;;;50.75;13.00;;;9.30;99.90;;;;;;5017602;28;20525;-71
2022/12/22 03:30:34;;;;;;;45.28;13.40;;;9.30;99.90;;;;;;5018027;28;20462;-71
2022/12/22 03:32:59;;;;;;;46.47;13.95;;;9.30;99.90;;;;;;5017640;28;20722;-68
2022/12/22 03:35:26;;;;;;;43.67;13.88;;;9.30;99.90;;;;;;5018668;28;20113;-70
2022/12/22 03:37:52;;;;;;;48.63;14.57;;;9.30;99.90;;;;;;5016516;28;20502;-71
2022/12/22 03:40:18;;;;;;;44.53;13.93;;;9.30;99.90;;;;;;5018947;28;20033;-71
2022/12/22 03:48:12;;;;;;;35.13;12.63;;;9.30;99.90;;;;;;5016143;28;20111;-70
2022/12/22 03:50:37;;;;;;;46.10;13.38;;;9.30;99.90;;;;;;5018512;28;20042;-70
2022/12/22 03:53:04;;;;;;;41.95;12.82;;;9.30;99.90;;;;;;5000550;28;20037;-69
2022/12/22 03:55:30;;;;;;;55.08;14.32;;;9.20;99.90;;;;;;5016413;28;20073;-68
2022/12/22 03:57:55;;;;;;;75.25;16.17;;;9.20;99.90;;;;;;5019413;28;20029;-70
2022/12/22 04:00:21;;;;;;;88.55;17.85;;;9.20;99.90;;;;;;5013408;28;20037;-70
2022/12/22 04:02:47;;;;;;;55.75;15.63;;;9.20;99.90;;;;;;5012430;28;20037;-71
2022/12/22 04:05:13;;;;;;;65.78;16.70;;;9.20;99.90;;;;;;5018107;28;20036;-70
2022/12/22 04:07:38;;;;;;;64.75;15.88;;;9.20;99.90;;;;;;5017005;28;20474;-70
2022/12/22 04:12:55;;;;;;;45.90;14.23;;;9.20;99.90;;;;;;5011696;28;20048;-70
2022/12/22 04:15:26;;;;;;;51.00;15.70;;;9.20;99.90;;;;;;5013752;28;20044;-69
2022/12/22 04:17:52;;;;;;;58.85;15.38;;;9.20;99.90;;;;;;5016412;28;20026;-69
2022/12/22 04:20:19;;;;;;;58.47;15.93;;;9.20;99.90;;;;;;5018636;28;20041;-69
2022/12/22 04:22:46;;;;;;;64.35;16.17;;;9.20;99.90;;;;;;5016118;28;20506;-72
2022/12/22 04:25:11;;;;;;;75.65;15.13;;;9.20;99.90;;;;;;5017711;28;20041;-72
2022/12/22 04:27:37;;;;;;;77.22;17.65;;;9.20;99.90;;;;;;5018079;28;20089;-70
2022/12/22 04:30:04;;;;;;;66.93;15.07;;;9.20;99.90;;;;;;5017644;28;20556;-69
2022/12/22 04:32:30;;;;;;;119.47;20.08;;;9.20;99.90;;;;;;5016050;28;20049;-71
2022/12/22 04:34:55;;;;;;;129.77;20.58;;;9.20;99.90;;;;;;5018280;28;20111;-70
2022/12/22 04:37:21;;;;;;;88.75;18.85;;;9.20;99.90;;;;;;5015026;28;20104;-71
2022/12/22 04:39:47;;;;;;;90.65;17.92;;;9.20;99.90;;;;;;5018824;28;20033;-70
2022/12/22 04:42:12;;;;;;;112.00;19.08;;;9.20;99.90;;;;;;5014952;28;20042;-71
2022/12/22 04:44:38;;;;;;;66.13;16.95;;;9.20;99.90;;;;;;5018042;28;20044;-70
2022/12/22 04:47:03;;;;;;;73.38;17.50;;;9.20;99.90;;;;;;5017095;28;20033;-70
2022/12/22 04:49:29;;;;;;;83.50;17.95;;;9.20;99.90;;;;;;5015869;28;20049;-70
2022/12/22 04:51:54;;;;;;;81.82;17.60;;;9.20;99.90;;;;;;5018197;28;20096;-70
2022/12/22 04:54:20;;;;;;;71.88;15.77;;;9.20;99.90;;;;;;5014494;28;20129;-70
2022/12/22 04:56:45;;;;;;;67.00;16.63;;;9.20;99.90;;;;;;5018669;28;20111;-70
2022/12/22 04:59:11;;;;;;;51.92;15.68;;;9.20;99.90;;;;;;5013716;28;20081;-71
2022/12/22 05:01:37;;;;;;;66.22;15.07;;;9.20;99.90;;;;;;5017912;28;20521;-70
2022/12/22 05:04:02;;;;;;;54.65;14.32;;;9.20;99.90;;;;;;5016221;28;20041;-68
2022/12/22 05:06:28;;;;;;;56.80;15.05;;;9.20;99.90;;;;;;5015651;28;20470;-70
2022/12/22 05:08:54;;;;;;;62.15;14.77;;;9.20;99.90;;;;;;5017832;28;20041;-70
2022/12/22 05:11:20;;;;;;;47.90;13.57;;;9.20;99.90;;;;;;4999461;28;20041;-71
2022/12/22 05:13:45;;;;;;;48.78;14.73;;;9.20;99.90;;;;;;5022762;28;20034;-70
2022/12/22 05:16:13;;;;;;;34.85;12.80;;;9.20;99.90;;;;;;5020430;28;20048;-71
2022/12/22 05:18:41;;;;;;;34.78;13.30;;;9.20;99.90;;;;;;5001811;28;20815;-71
2022/12/22 05:21:10;;;;;;;36.17;12.70;;;9.20;99.90;;;;;;5021992;28;20121;-70
2022/12/22 05:23:35;;;;;;;45.35;15.00;;;9.20;99.90;;;;;;5019307;28;20552;-70
2022/12/22 05:26:01;;;;;;;38.70;12.55;;;9.20;99.90;;;;;;5023053;28;20030;-70
2022/12/22 05:28:27;;;;;;;51.25;14.90;;;9.20;99.90;;;;;;5019742;28;20111;-69
2022/12/22 05:30:53;;;;;;;63.92;15.50;;;9.20;99.90;;;;;;5021912;28;20074;-71
2022/12/22 05:33:19;;;;;;;72.40;18.17;;;9.30;99.90;;;;;;5018514;28;20045;-70
2022/12/22 05:35:45;;;;;;;59.83;15.93;;;9.30;99.90;;;;;;5022193;28;20187;-72
2022/12/22 05:38:10;;;;;;;58.53;15.55;;;9.20;99.90;;;;;;5018103;28;20562;-71
2022/12/22 05:40:36;;;;;;;78.15;19.15;;;9.20;99.90;;;;;;5003098;28;20374;-68
2022/12/22 05:43:01;;;;;;;84.78;19.42;;;9.30;99.90;;;;;;5016119;28;20376;-69
2022/12/22 05:45:27;;;;;;;69.10;18.38;;;9.30;99.90;;;;;;5014077;28;20473;-71
2022/12/22 05:47:53;;;;;;;73.53;18.05;;;9.30;99.90;;;;;;5015997;28;20109;-70
2022/12/22 05:50:21;;;;;;;72.05;20.55;;;9.30;99.90;;;;;;5013931;28;20042;-70
2022/12/22 05:52:46;;;;;;;66.95;18.35;;;9.30;99.90;;;;;;5014755;28;20034;-70
2022/12/22 05:55:14;;;;;;;80.25;19.20;;;9.20;99.90;;;;;;4997424;28;20533;-70
2022/12/22 05:57:40;;;;;;;67.95;17.30;;;9.20;99.90;;;;;;5017973;28;20049;-70
2022/12/22 06:00:08;;;;;;;61.03;16.52;;;9.20;99.90;;;;;;5020944;28;20029;-71
2022/12/22 06:02:34;;;;;;;56.78;16.75;;;9.20;99.90;;;;;;5013667;28;20033;-71
2022/12/22 06:05:00;;;;;;;57.80;15.82;;;9.10;99.90;;;;;;5019873;28;20045;-70
2022/12/22 06:07:26;;;;;;;57.60;14.52;;;9.10;99.90;;;;;;5018628;28;20029;-70
2022/12/22 06:09:51;;;;;;;58.78;15.68;;;9.10;99.90;;;;;;4997030;28;20089;-70
2022/12/22 06:12:17;;;;;;;53.38;15.20;;;9.10;99.90;;;;;;5007237;28;20053;-71
2022/12/22 06:14:43;;;;;;;49.55;13.80;;;9.00;99.90;;;;;;5009862;28;20081;-70
2022/12/22 06:17:08;;;;;;;54.42;14.70;;;9.00;99.90;;;;;;5014831;28;20044;-70
2022/12/22 06:19:34;;;;;;;55.50;15.25;;;9.00;99.90;;;;;;5014057;28;20053;-70
2022/12/22 06:22:00;;;;;;;43.72;13.40;;;9.00;99.90;;;;;;5015504;28;20041;-72
2022/12/22 06:24:25;;;;;;;52.67;15.50;;;9.00;99.90;;;;;;4993334;28;20042;-70
2022/12/22 06:26:51;;;;;;;58.42;15.60;;;9.00;99.90;;;;;;4991986;28;20116;-71
2022/12/22 06:29:17;;;;;;;60.95;16.85;;;8.90;99.90;;;;;;5009668;28;20184;-70
2022/12/22 06:31:42;;;;;;;78.40;16.02;;;8.90;99.90;;;;;;5011340;28;20045;-69
2022/12/22 06:34:09;;;;;;;56.90;16.70;;;8.90;99.90;;;;;;5010948;28;20057;-69
2022/12/22 06:36:35;;;;;;;64.80;16.27;;;8.90;99.90;;;;;;5017318;28;20048;-70
2022/12/22 06:39:00;;;;;;;58.50;14.52;;;8.80;99.90;;;;;;5017610;28;20038;-70
2022/12/22 06:44:10;;;;;;;51.70;11.95;;;8.90;99.90;;;;;;5010368;28;20044;-72
2022/12/22 06:46:36;;;;;;;37.60;9.82;;;8.80;99.90;;;;;;5006717;28;20037;-72
2022/12/22 06:49:02;;;;;;;54.53;11.52;;;8.80;99.90;;;;;;5019567;28;20056;-70
2022/12/22 06:51:27;;;;;;;78.72;12.93;;;8.80;99.90;;;;;;5019315;28;20069;-71
2022/12/22 06:53:53;;;;;;;47.97;10.05;;;8.70;99.90;;;;;;5014487;28;20032;-70
2022/12/22 06:56:19;;;;;;;52.25;10.73;;;8.70;99.90;;;;;;5000699;28;20030;-71
2022/12/22 06:58:44;;;;;;;32.65;7.93;;;8.70;99.90;;;;;;5021095;28;20048;-70
2022/12/22 07:01:10;;;;;;;58.40;9.60;;;8.70;99.90;;;;;;5017246;28;20033;-71
2022/12/22 07:03:35;;;;;;;47.35;8.23;;;8.60;99.90;;;;;;5009861;28;20117;-72
2022/12/22 07:06:01;;;;;;;39.35;8.50;;;8.60;99.90;;;;;;5020664;28;20486;-69
2022/12/22 07:08:27;;;;;;;31.85;7.25;;;8.60;99.90;;;;;;5008730;28;20084;-70
2022/12/22 07:10:58;;;;;;;44.35;6.97;;;8.50;99.90;;;;;;5006090;28;20414;-69
2022/12/22 07:13:30;;;;;;;50.85;8.07;;;8.50;99.90;;;;;;5005173;28;20034;-71
2022/12/22 07:15:56;;;;;;;40.58;6.50;;;8.50;99.90;;;;;;5005944;28;20077;-70
2022/12/22 07:18:22;;;;;;;39.35;5.93;;;8.40;99.90;;;;;;5009074;28;20155;-71
2022/12/22 07:20:47;;;;;;;48.65;6.97;;;8.40;99.90;;;;;;5007117;28;20165;-71
2022/12/22 07:23:13;;;;;;;58.90;8.57;;;8.40;99.90;;;;;;5012032;28;20034;-71
2022/12/22 07:25:38;;;;;;;39.58;6.90;;;8.40;99.90;;;;;;5011888;28;20053;-70
2022/12/22 07:28:06;;;;;;;31.98;6.30;;;8.40;99.90;;;;;;5013132;28;20144;-71
2022/12/22 07:30:31;;;;;;;34.53;6.13;;;8.40;99.90;;;;;;5014090;28;20030;-70
2022/12/22 07:32:57;;;;;;;47.17;7.68;;;8.40;99.90;;;;;;5003694;28;20041;-70
2022/12/22 07:35:23;;;;;;;26.83;5.60;;;8.40;99.90;;;;;;5007287;28;20088;-72
2022/12/22 07:37:48;;;;;;;49.47;6.63;;;8.40;99.90;;;;;;4992957;28;20037;-71
2022/12/22 07:40:15;;;;;;;48.60;6.78;;;8.40;99.90;;;;;;5015880;28;20030;-70
2022/12/22 07:42:43;;;;;;;36.08;6.53;;;8.40;99.90;;;;;;5006382;28;20030;-71
2022/12/22 07:45:17;;;;;;;34.70;7.03;;;8.40;99.90;;;;;;5007469;28;20038;-71
2022/12/22 07:47:43;;;;;;;23.70;6.20;;;8.40;99.90;;;;;;5012843;28;20402;-71
2022/12/22 07:50:31;;;;;;;26.23;6.05;;;8.30;99.90;;;;;;5012355;28;20033;-70
2022/12/22 07:52:59;;;;;;;31.58;7.25;;;8.30;99.90;;;;;;5007085;28;20484;-73
2022/12/22 07:55:27;;;;;;;25.35;6.55;;;8.30;99.90;;;;;;5014359;28;20030;-69
2022/12/22 07:57:54;;;;;;;29.13;7.25;;;8.30;99.90;;;;;;5014369;28;20042;-69
2022/12/22 08:00:20;;;;;;;36.28;7.13;;;8.30;99.90;;;;;;5014377;28;20130;-71
2022/12/22 08:02:53;;;;;;;20.13;5.10;;;8.30;99.90;;;;;;5014790;28;20067;-70
2022/12/22 08:05:21;;;;;;;23.15;4.90;;;8.30;99.90;;;;;;5014353;28;20034;-69
2022/12/22 08:07:51;;;;;;;23.13;4.63;;;8.30;99.90;;;;;;5009415;28;20038;-70
2022/12/22 08:10:18;;;;;;;22.98;5.55;;;8.30;99.90;;;;;;5010950;28;20053;-71
2022/12/22 08:12:44;;;;;;;31.20;4.68;;;8.20;99.90;;;;;;5016259;28;20032;-71
2022/12/22 08:15:10;;;;;;;24.83;4.78;;;8.30;99.90;;;;;;5009734;28;20038;-70
2022/12/22 08:17:36;;;;;;;34.30;5.47;;;8.20;99.90;;;;;;5012032;28;20164;-70
2022/12/22 08:20:03;;;;;;;34.38;5.65;;;8.20;99.90;;;;;;5011201;28;20978;-70
2022/12/22 08:22:29;;;;;;;21.08;4.45;;;8.20;99.90;;;;;;5008760;28;20075;-71
2022/12/22 08:24:56;;;;;;;47.67;5.88;;;8.20;99.90;;;;;;5007291;28;20033;-69
2022/12/22 08:27:45;;;;;;;45.95;6.07;;;8.20;99.90;;;;;;5008556;28;20049;-70
2022/12/22 08:30:11;;;;;;;32.75;5.25;;;8.20;99.90;;;;;;5002320;28;20120;-71
2022/12/22 08:32:38;;;;;;;53.78;6.40;;;8.10;99.90;;;;;;5004487;28;20082;-70
2022/12/22 08:35:05;;;;;;;50.10;6.40;;;8.10;99.90;;;;;;5013096;28;20033;-70
2022/12/22 08:37:39;;;;;;;36.33;5.25;;;8.00;99.90;;;;;;5001790;28;20149;-70
2022/12/22 08:40:09;;;;;;;38.38;4.80;;;8.00;99.90;;;;;;5012209;28;20121;-73
2022/12/22 08:42:34;;;;;;;29.55;3.75;;;7.90;99.90;;;;;;5003062;28;20038;-70
2022/12/22 08:45:00;;;;;;;18.15;4.25;;;7.90;99.90;;;;;;5007564;28;20057;-70
2022/12/22 08:47:25;;;;;;;15.70;4.40;;;7.80;99.90;;;;;;5007418;28;20410;-70
2022/12/22 08:49:51;;;;;;;29.33;3.55;;;7.80;99.90;;;;;;4987276;28;20103;-70
2022/12/22 08:52:17;;;;;;;16.05;3.28;;;7.70;99.90;;;;;;5003783;28;20521;-70
2022/12/22 08:54:42;;;;;;;17.77;3.88;;;7.70;99.90;;;;;;5004682;28;20033;-70
2022/12/22 08:57:08;;;;;;;7.28;2.78;;;7.60;99.90;;;;;;5008206;28;20034;-69
2022/12/22 08:59:34;;;;;;;7.95;2.67;;;7.60;99.90;;;;;;5010353;28;20104;-69
2022/12/22 09:02:03;;;;;;;11.38;3.03;;;7.60;99.90;;;;;;5011415;28;20049;-70
2022/12/22 09:04:30;;;;;;;19.75;2.95;;;7.60;99.90;;;;;;5010457;28;20562;-71
2022/12/22 09:06:56;;;;;;;23.42;4.00;;;7.50;99.90;;;;;;5017469;28;20049;-68
2022/12/22 09:09:22;;;;;;;14.18;2.30;;;7.50;99.90;;;;;;5013996;28;20037;-70
2022/12/22 09:11:48;;;;;;;16.20;2.83;;;7.50;99.90;;;;;;5014323;28;20113;-71
2022/12/22 09:14:14;;;;;;;27.63;4.07;;;7.50;99.90;;;;;;4995290;28;20044;-71
2022/12/22 09:16:39;;;;;;;24.75;3.35;;;7.50;99.90;;;;;;5013892;28;20406;-70
2022/12/22 09:19:06;;;;;;;53.85;5.47;;;7.50;99.90;;;;;;5013900;28;20092;-69
2022/12/22 09:21:33;;;;;;;24.73;3.75;;;7.40;99.90;;;;;;5010043;28;20060;-70
2022/12/22 09:23:59;;;;;;;20.30;4.43;;;7.40;99.90;;;;;;5011279;28;20030;-69
2022/12/22 09:26:27;;;;;;;26.40;3.65;;;7.40;99.90;;;;;;5016054;28;20509;-70
2022/12/22 09:28:53;;;;;;;23.70;4.63;;;7.30;99.90;;;;;;5017817;28;20052;-71
2022/12/22 09:31:20;;;;;;;16.17;3.45;;;7.30;99.90;;;;;;5013186;28;20053;-70
2022/12/22 09:33:46;;;;;;;20.10;4.50;;;7.30;99.90;;;;;;5016719;28;20379;-70
2022/12/22 09:36:15;;;;;;;9.93;2.95;;;7.30;99.90;;;;;;5013756;28;20515;-70
2022/12/22 09:38:41;;;;;;;9.93;3.70;;;7.30;99.90;;;;;;5012411;28;20150;-69
2022/12/22 09:41:18;;;;;;;14.93;4.07;;;7.40;99.90;;;;;;5015908;28;20494;-71
2022/12/22 09:43:44;;;;;;;17.10;4.72;;;7.40;99.90;;;;;;5015570;28;20041;-71
2022/12/22 09:46:22;;;;;;;9.82;3.08;;;7.40;99.90;;;;;;5016455;28;20045;-71
2022/12/22 09:48:48;;;;;;;12.77;3.80;;;7.40;99.90;;;;;;5014936;28;20042;-71
2022/12/22 09:51:16;;;;;;;10.25;3.92;;;7.40;99.90;;;;;;5015350;28;20061;-72
2022/12/22 09:53:44;;;;;;;10.25;4.25;;;7.50;99.90;;;;;;5013063;28;20034;-70
2022/12/22 09:56:15;;;;;;;10.85;4.80;;;7.50;99.90;;;;;;5016571;28;20038;-70
2022/12/22 09:58:42;;;;;;;7.65;3.40;;;7.60;99.90;;;;;;5001614;28;20445;-71
2022/12/22 10:01:33;;;;;;;10.15;4.10;;;7.60;99.90;;;;;;5021377;28;20037;-71
2022/12/22 10:04:05;;;;;;;12.50;4.00;;;7.70;99.90;;;;;;5015036;28;20049;-70
2022/12/22 10:06:59;;;;;;;15.05;4.82;;;7.80;99.90;;;;;;5014858;28;20080;-71
2022/12/22 10:09:28;;;;;;;13.43;4.47;;;7.90;99.90;;;;;;4994994;28;20048;-70
2022/12/22 10:12:04;;;;;;;11.13;3.95;;;8.00;99.90;;;;;;5022293;28;20033;-71
2022/12/22 10:14:42;;;;;;;10.23;3.72;;;8.10;99.90;;;;;;4996597;28;21238;-70
2022/12/22 10:17:25;;;;;;;11.10;3.90;;;8.20;99.90;;;;;;4999865;28;20041;-71
2022/12/22 10:19:53;;;;;;;10.70;3.47;;;8.30;99.90;;;;;;5018601;28;20029;-71
2022/12/22 10:22:29;;;;;;;12.02;4.18;;;8.40;99.90;;;;;;5017634;28;20402;-70
2022/12/22 10:24:55;;;;;;;11.82;3.72;;;8.50;99.90;;;;;;5015033;28;20648;-69
2022/12/22 10:27:23;;;;;;;9.98;4.28;;;8.60;99.90;;;;;;5020010;28;20033;-68
2022/12/22 10:29:49;;;;;;;9.70;3.38;;;8.60;99.90;;;;;;5015812;28;20046;-71
2022/12/22 10:32:18;;;;;;;9.27;3.05;;;8.70;99.90;;;;;;5018561;28;20041;-71
2022/12/22 10:35:05;;;;;;;9.20;3.90;;;8.80;99.90;;;;;;5020389;28;20692;-70
2022/12/22 10:37:36;;;;;;;10.18;3.15;;;8.80;99.90;;;;;;5014349;28;20095;-70
2022/12/22 10:40:18;;;;;;;6.45;2.90;;;8.90;99.90;;;;;;5021197;28;20026;-70
2022/12/22 10:42:56;;;;;;;9.80;2.97;;;8.90;99.90;;;;;;5020019;28;20095;-69
2022/12/22 10:45:25;;;;;;;13.57;4.60;;;9.00;99.90;;;;;;4999901;28;20030;-71
2022/12/22 10:47:53;;;;;;;7.13;2.80;;;9.00;99.90;;;;;;5021638;28;20037;-71
2022/12/22 10:50:20;;;;;;;9.43;3.67;;;9.00;99.90;;;;;;5017253;28;20075;-71
2022/12/22 10:52:51;;;;;;;8.80;3.42;;;9.00;99.90;;;;;;5020880;28;20064;-70
2022/12/22 10:55:21;;;;;;;9.02;3.10;;;9.10;99.90;;;;;;5013733;28;20169;-70
2022/12/22 10:57:48;;;;;;;9.73;2.75;;;9.10;99.90;;;;;;5019428;28;20042;-70
2022/12/22 11:00:28;;;;;;;9.00;3.08;;;9.20;99.90;;;;;;5016295;28;20053;-69
2022/12/22 11:02:57;;;;;;;12.48;2.63;;;9.20;99.90;;;;;;5013716;28;20544;-70
2022/12/22 11:05:23;;;;;;;6.30;2.25;;;9.20;99.90;;;;;;5012307;28;20045;-70
2022/12/22 11:07:49;;;;;;;3.78;2.30;;;9.20;99.90;;;;;;5018651;28;20030;-70
2022/12/22 11:10:17;;;;;;;10.35;2.58;;;9.30;99.90;;;;;;5018138;28;20044;-69
2022/12/22 11:13:01;;;;;;;6.88;2.53;;;9.30;99.90;;;;;;5006373;28;20392;-70
2022/12/22 11:16:08;;;;;;;8.75;2.45;;;9.30;99.90;;;;;;5010209;28;20817;-71
2022/12/22 11:18:58;;;;;;;6.50;2.45;;;9.30;99.90;;;;;;4991423;28;20079;-70
2022/12/22 11:21:48;;;;;;;5.13;1.95;;;9.40;99.90;;;;;;5009303;28;20034;-71
2022/12/22 11:24:36;;;;;;;11.07;2.67;;;9.30;99.90;;;;;;5010789;28;20053;-69
2022/12/22 11:27:23;;;;;;;7.25;2.72;;;9.40;99.90;;;;;;5012180;28;20045;-70
2022/12/22 11:30:18;;;;;;;10.40;2.55;;;9.30;99.90;;;;;;5015126;28;20466;-71
2022/12/22 11:32:59;;;;;;;12.50;2.15;;;9.40;99.90;;;;;;5011592;28;20038;-70
2022/12/22 11:35:47;;;;;;;8.57;3.05;;;9.40;99.90;;;;;;5015408;28;20069;-70
2022/12/22 11:38:48;;;;;;;6.00;2.22;;;9.40;99.90;;;;;;5016278;28;20034;-71
2022/12/22 11:41:22;;;;;;;6.72;2.90;;;9.40;99.90;;;;;;5015898;28;20089;-71
2022/12/22 11:44:11;;;;;;;5.40;2.13;;;9.50;99.90;;;;;;5009110;28;20077;-70
2022/12/22 11:47:11;;;;;;;7.43;2.35;;;9.50;99.90;;;;;;5003574;28;20029;-70
2022/12/22 11:49:53;;;;;;;9.13;2.40;;;9.50;99.90;;;;;;4901690;28;20143;-69
2022/12/22 11:52:41;;;;;;;7.53;2.03;;;9.60;99.90;;;;;;4986808;28;20065;-70
2022/12/22 11:55:18;;;;;;;7.75;2.90;;;9.50;99.90;;;;;;5006382;28;20398;-70
2022/12/22 11:58:05;;;;;;;8.23;2.95;;;9.50;99.90;;;;;;5017456;28;20037;-70
2022/12/22 12:00:41;;;;;;;7.13;2.03;;;9.50;99.90;;;;;;5012991;28;20033;-69
2022/12/22 12:03:34;;;;;;;8.18;2.42;;;9.50;99.90;;;;;;5010973;28;20048;-72
2022/12/22 12:06:24;;;;;;;7.05;2.72;;;9.60;99.90;;;;;;5013009;28;20033;-69
2022/12/22 12:09:06;;;;;;;8.38;2.78;;;9.70;99.90;;;;;;5006996;28;20029;-71
2022/12/22 12:11:44;;;;;;;12.32;2.78;;;9.70;99.90;;;;;;5011714;28;20029;-70
2022/12/22 12:14:19;;;;;;;4.80;2.38;;;9.70;99.90;;;;;;5014222;28;20033;-71
2022/12/22 12:16:50;;;;;;;8.57;3.45;;;9.70;99.90;;;;;;5012898;28;20056;-70
2022/12/22 12:19:36;;;;;;;11.70;3.45;;;9.60;99.90;;;;;;5017369;28;20040;-71
2022/12/22 12:22:04;;;;;;;7.20;3.53;;;9.60;99.90;;;;;;5014874;28;20034;-73
2022/12/22 12:25:10;;;;;;;8.05;4.47;;;9.40;99.90;;;;;;5018279;28;20036;-71
2022/12/22 12:27:44;;;;;;;10.05;3.13;;;9.20;99.90;;;;;;5016180;28;20045;-72
2022/12/22 12:30:16;;;;;;;10.15;4.00;;;9.00;99.90;;;;;;5015018;28;20030;-69
2022/12/22 12:33:22;;;;;;;11.82;4.07;;;8.90;99.90;;;;;;5015426;28;20025;-71
2022/12/22 12:35:47;;;;;;;12.40;5.00;;;8.80;99.90;;;;;;4987535;28;20140;-70
2022/12/22 12:38:25;;;;;;;11.38;4.20;;;8.60;99.90;;;;;;5016272;28;20647;-71
2022/12/22 12:40:59;;;;;;;12.25;4.53;;;8.40;99.90;;;;;;5012067;28;20386;-70
2022/12/22 12:43:25;;;;;;;20.02;7.13;;;8.40;99.90;;;;;;5013285;28;20037;-70
2022/12/22 12:45:50;;;;;;;19.25;7.00;;;8.30;99.90;;;;;;4997286;28;20116;-71
2022/12/22 12:48:19;;;;;;;15.48;6.18;;;8.20;99.90;;;;;;5013597;28;20053;-70
2022/12/22 12:50:49;;;;;;;16.75;6.65;;;8.20;99.90;;;;;;5014846;28;20475;-70
2022/12/22 12:53:15;;;;;;;17.67;7.32;;;8.20;99.90;;;;;;4999774;28;20091;-70
2022/12/22 12:55:51;;;;;;;21.98;7.88;;;8.20;99.90;;;;;;5015633;28;20081;-70
2022/12/22 12:58:38;;;;;;;20.40;8.13;;;8.20;99.90;;;;;;5009891;28;20049;-70
2022/12/22 13:01:12;;;;;;;16.65;7.45;;;8.10;99.90;;;;;;5015393;28;20152;-70
2022/12/22 13:03:40;;;;;;;24.73;9.18;;;8.10;99.90;;;;;;5012561;28;20025;-71
2022/12/22 13:06:08;;;;;;;20.25;8.10;;;8.10;99.90;;;;;;5014376;28;20041;-70
2022/12/22 13:09:05;;;;;;;22.13;8.23;;;8.10;99.90;;;;;;5014954;28;20030;-70
2022/12/22 13:11:36;;;;;;;20.38;7.38;;;8.20;99.90;;;;;;4995904;28;20069;-71
2022/12/22 13:14:02;;;;;;;21.65;7.65;;;8.10;99.90;;;;;;5017768;28;20064;-70
2022/12/22 13:16:31;;;;;;;20.63;8.05;;;8.20;99.90;;;;;;5013264;28;20084;-71
2022/12/22 13:18:58;;;;;;;16.33;6.82;;;8.20;99.90;;;;;;5016220;28;20656;-71
2022/12/22 13:21:27;;;;;;;19.65;7.15;;;8.20;99.90;;;;;;5014864;28;20040;-70
2022/12/22 13:24:20;;;;;;;20.83;8.52;;;8.20;99.90;;;;;;5017072;28;20113;-68
2022/12/22 13:26:48;;;;;;;19.63;7.75;;;8.20;99.90;;;;;;5013644;28;20022;-71
2022/12/22 13:29:39;;;;;;;17.77;7.10;;;8.20;99.90;;;;;;5006223;28;20049;-71
2022/12/22 13:32:33;;;;;;;27.20;7.75;;;8.20;99.90;;;;;;5008306;28;20697;-71
2022/12/22 13:35:17;;;;;;;19.60;8.02;;;8.20;99.90;;;;;;4990087;28;20030;-71
2022/12/22 13:37:47;;;;;;;18.30;7.30;;;8.30;99.90;;;;;;5011181;28;20049;-71
2022/12/22 13:40:24;;;;;;;16.90;6.75;;;8.30;99.90;;;;;;5007265;28;20038;-70
2022/12/22 13:42:53;;;;;;;17.35;7.32;;;8.30;99.90;;;;;;5006368;28;20650;-70
2022/12/22 13:45:35;;;;;;;16.77;7.57;;;8.40;99.90;;;;;;5007105;28;20479;-70
2022/12/22 13:48:15;;;;;;;19.45;7.60;;;8.30;99.90;;;;;;5007540;28;20113;-71
2022/12/22 13:51:02;;;;;;;17.60;6.97;;;8.30;99.90;;;;;;5009729;28;20092;-71
2022/12/22 13:53:38;;;;;;;18.35;7.32;;;8.40;99.90;;;;;;5017208;28;20025;-72
2022/12/22 13:56:13;;;;;;;21.65;7.38;;;8.40;99.90;;;;;;5018959;28;20037;-70
2022/12/22 13:58:44;;;;;;;17.75;7.43;;;8.40;99.90;;;;;;5019690;28;20175;-71
2022/12/22 14:01:09;;;;;;;15.35;6.72;;;8.50;99.90;;;;;;5017260;28;20563;-69
2022/12/22 14:03:44;;;;;;;23.20;8.32;;;8.50;99.90;;;;;;4998800;28;20121;-69
2022/12/22 14:06:25;;;;;;;17.80;7.90;;;8.50;99.90;;;;;;5021062;28;20498;-71
2022/12/22 14:08:51;;;;;;;17.45;7.93;;;8.50;99.90;;;;;;5014689;28;20044;-71
2022/12/22 14:11:16;;;;;;;21.08;9.70;;;8.50;99.90;;;;;;5020364;28;20100;-71
2022/12/22 14:13:43;;;;;;;21.70;9.52;;;8.50;99.90;;;;;;4997098;28;20033;-72
2022/12/22 14:16:12;;;;;;;23.20;9.00;;;8.50;99.90;;;;;;5008867;28;20037;-68
2022/12/22 14:18:38;;;;;;;27.33;9.67;;;8.50;99.90;;;;;;5008217;28;20131;-71
2022/12/22 14:21:05;;;;;;;23.80;10.23;;;8.50;99.90;;;;;;5007438;28;20320;-67
2022/12/22 14:23:37;;;;;;;25.20;8.35;;;8.50;99.90;;;;;;5006008;28;20045;-69
2022/12/22 14:26:05;;;;;;;22.05;8.75;;;8.40;99.90;;;;;;5007998;28;20084;-71
2022/12/22 14:28:49;;;;;;;20.45;8.82;;;8.40;99.90;;;;;;5004386;28;20036;-70
2022/12/22 14:31:15;;;;;;;22.85;8.60;;;8.40;99.90;;;;;;5011482;28;20076;-71
2022/12/22 14:34:04;;;;;;;24.85;8.57;;;8.50;99.90;;;;;;5010747;28;20091;-72
2022/12/22 14:36:36;;;;;;;21.58;9.48;;;8.50;99.90;;;;;;5017047;28;20498;-70
2022/12/22 14:39:08;;;;;;;27.80;9.32;;;8.50;99.90;;;;;;5015942;28;20116;-72
2022/12/22 14:41:53;;;;;;;22.63;9.85;;;8.50;99.90;;;;;;5015835;28;20053;-71
2022/12/22 14:44:21;;;;;;;20.80;8.57;;;8.40;99.90;;;;;;5010858;28;20046;-70
2022/12/22 14:47:19;;;;;;;21.83;9.88;;;8.40;99.90;;;;;;5020408;28;20041;-71
2022/12/22 14:50:12;;;;;;;23.95;10.07;;;8.40;99.90;;;;;;5013689;28;20132;-71
2022/12/22 14:52:51;;;;;;;29.55;9.93;;;8.40;99.90;;;;;;5017079;28;20379;-71
2022/12/22 14:55:30;;;;;;;26.38;8.93;;;8.40;99.90;;;;;;5014229;28;20132;-70
2022/12/22 14:57:59;;;;;;;26.35;10.23;;;8.40;99.90;;;;;;5019829;28;20071;-71
2022/12/22 15:00:34;;;;;;;28.65;11.30;;;8.30;99.90;;;;;;5018895;28;20049;-72
2022/12/22 15:03:24;;;;;;;24.10;10.20;;;8.30;99.90;;;;;;5019215;28;20048;-71
2022/12/22 15:05:50;;;;;;;26.77;10.33;;;8.40;99.90;;;;;;5016502;28;20033;-71
2022/12/22 15:08:41;;;;;;;23.83;10.60;;;8.40;99.90;;;;;;5020774;28;20452;-71
2022/12/22 15:11:14;;;;;;;23.10;9.43;;;8.40;99.90;;;;;;5008369;28;20336;-69
2022/12/22 15:13:40;;;;;;;29.80;10.82;;;8.40;99.90;;;;;;5013062;28;20091;-71
2022/12/22 15:16:12;;;;;;;25.95;11.05;;;8.40;99.90;;;;;;5018492;28;20033;-71
2022/12/22 15:18:38;;;;;;;32.58;11.18;;;8.40;99.90;;;;;;5029941;28;20132;-69
2022/12/22 15:21:03;;;;;;;29.88;11.82;;;8.40;99.90;;;;;;5018067;28;20041;-71
2022/12/22 15:23:29;;;;;;;27.00;11.50;;;8.40;99.90;;;;;;5019067;28;20084;-73
2022/12/22 15:25:54;;;;;;;30.63;12.88;;;8.40;99.90;;;;;;5017493;28;20022;-71
2022/12/22 15:28:20;;;;;;;27.83;12.05;;;8.40;99.90;;;;;;5018922;28;20091;-71
2022/12/22 15:30:46;;;;;;;38.08;13.48;;;8.40;99.90;;;;;;5017496;28;20069;-72
2022/12/22 15:33:13;;;;;;;33.95;10.52;;;8.40;99.90;;;;;;5020455;28;20486;-71
2022/12/22 15:35:40;;;;;;;28.08;11.25;;;8.40;99.90;;;;;;4991150;28;20060;-70
2022/12/22 15:38:12;;;;;;;34.47;11.68;;;8.40;99.90;;;;;;5012728;28;20383;-69
2022/12/22 15:40:38;;;;;;;33.15;12.57;;;8.40;99.90;;;;;;5011622;28;20037;-68
2022/12/22 15:43:03;;;;;;;36.97;12.88;;;8.40;99.90;;;;;;5019712;28;20041;-70
2022/12/22 15:45:29;;;;;;;35.67;13.35;;;8.50;99.90;;;;;;5016042;28;20060;-70
2022/12/22 15:47:56;;;;;;;34.50;13.98;;;8.50;99.90;;;;;;5016644;28;20044;-70
2022/12/22 15:50:30;;;;;;;37.85;13.82;;;8.40;99.90;;;;;;5014981;28;20119;-68
2022/12/22 15:52:57;;;;;;;28.70;11.88;;;8.40;99.90;;;;;;5008438;28;20038;-69
2022/12/22 15:55:24;;;;;;;40.95;13.82;;;8.40;99.90;;;;;;5011812;28;20046;-67
2022/12/22 15:57:52;;;;;;;33.53;12.63;;;8.40;99.90;;;;;;4997402;28;20490;-69
2022/12/22 16:00:20;;;;;;;39.58;15.05;;;8.40;99.90;;;;;;5011868;28;20445;-70
2022/12/22 16:02:46;;;;;;;33.90;12.57;;;8.40;99.90;;;;;;5005152;28;20122;-70
2022/12/22 16:05:12;;;;;;;34.70;14.25;;;8.40;99.90;;;;;;5007125;28;20093;-72
2022/12/22 16:07:39;;;;;;;37.40;13.95;;;8.40;99.90;;;;;;5004002;28;20065;-68
2022/12/22 16:10:07;;;;;;;39.58;14.85;;;8.40;99.90;;;;;;5002995;28;20521;-71
2022/12/22 16:12:36;;;;;;;33.88;13.43;;;8.40;99.90;;;;;;5002961;28;20533;-72
2022/12/22 16:15:02;;;;;;;32.30;13.70;;;8.40;99.90;;;;;;5004929;28;20038;-72
2022/12/22 16:17:28;;;;;;;34.63;13.93;;;8.40;99.90;;;;;;5005390;28;20046;-71
2022/12/22 16:19:53;;;;;;;33.10;13.35;;;8.40;99.90;;;;;;5004905;28;20406;-69
2022/12/22 16:22:28;;;;;;;34.83;12.95;;;8.40;99.90;;;;;;5003620;28;20141;-69
2022/12/22 16:24:54;;;;;;;38.67;12.57;;;8.40;99.90;;;;;;5009519;28;20040;-69
2022/12/22 16:27:21;;;;;;;29.27;12.27;;;8.40;99.90;;;;;;5008959;28;20130;-68
2022/12/22 16:29:51;;;;;;;27.85;11.65;;;8.40;99.90;;;;;;4995526;28;20037;-68
2022/12/22 16:32:22;;;;;;;30.60;12.25;;;8.50;99.90;;;;;;4984423;28;20506;-70
2022/12/22 16:34:48;;;;;;;;;;;8.40;99.90;;;;;;5005131;28;20449;-70
2022/12/22 16:37:13;;;;;;;29.42;11.30;;;8.40;99.90;;;;;;5008694;28;19924;-71
2022/12/22 16:39:39;;;;;;;36.33;12.00;;;8.40;99.90;;;;;;5013416;28;20080;-68
2022/12/22 16:42:09;;;;;;;32.45;11.75;;;8.40;99.90;;;;;;5014474;28;20030;-70